TAF and METAR

METAR for Bloemfontein Airport

FABL 170300Z 00000KT CAVOK M00/M04 Q1027 NOSIG
Report created 17. jul 05:00
wind 0 knots from N (000°) Clear sky Temperature -0° with dewpoint at -4° (Humidity 74.41%) Pressure 1027 hPa no significant weather change expected the next couple of hours

TAF for Bloemfontein Airport

TAF FABL 162200Z 1700/1724 VRB03KT CAVOK TX22/1712Z TN00/1705Z
Report created 17. jul 00:00

between 17. jul 02:00 - 17. jul 02:00

wind 3 knots from various directions Clear sky Max temperature 22° expected today at around 14 o'clock Min temperature 00° expected today at around 07 o'clock